Time;durP1;ratioP1;P1;durP2;ratioP2;P2;SDS_P1;SDS_P2;PMS_P1;PMS_P2;Temp;Humidity;BMP_temperature;BMP_pressure;BME280_temperature;BME280_humidity;BME280_pressure;Samples;Min_cycle;Max_cycle;Signal;HPM_P1;HPM_P2
2021/07/14 00:01:40;;;;;;;11.05;9.98;;;;;;;30.18;58.68;100596.47;5078754;27;65852;-31
2021/07/14 00:04:10;;;;;;;11.50;10.35;;;;;;;30.25;57.64;100601.84;5097529;27;69316;-33
2021/07/14 00:07:11;;;;;;;13.38;10.93;;;;;;;30.30;58.65;100590.38;5090915;27;45201;-31
2021/07/14 00:09:41;;;;;;;12.40;11.15;;;;;;;30.38;58.93;100590.09;5089885;27;69926;-31
2021/07/14 00:12:12;;;;;;;12.52;11.25;;;;;;;30.42;60.67;100580.44;5103188;27;66575;-31
2021/07/14 00:17:39;;;;;;;18.65;11.95;;;;;;;30.46;59.89;100576.25;5090620;27;65279;-31
2021/07/14 00:22:58;;;;;;;19.13;12.43;;;;;;;30.54;60.31;100578.66;5087022;27;66005;-31
2021/07/14 00:25:28;;;;;;;25.42;12.13;;;;;;;30.57;60.34;100571.97;5089756;27;70372;-31
2021/07/14 00:27:59;;;;;;;24.52;11.98;;;;;;;30.58;60.17;100574.44;5091307;27;65258;-31
2021/07/14 00:30:30;;;;;;;15.23;12.10;;;;;;;30.64;60.62;100587.06;5086588;27;69226;-30
2021/07/14 00:33:01;;;;;;;13.88;12.50;;;;;;;30.65;61.81;100580.63;5083903;27;65726;-32
2021/07/14 00:35:31;;;;;;;12.90;11.68;;;;;;;30.71;61.17;100570.78;5091016;27;69604;-31
2021/07/14 00:38:01;;;;;;;14.50;12.95;;;;;;;30.72;60.64;100584.06;5086624;27;65399;-30
2021/07/14 00:40:31;;;;;;;15.98;13.02;;;;;;;30.72;60.70;100591.38;5085261;27;69730;-31
2021/07/14 00:43:01;;;;;;;13.13;11.93;;;;;;;30.79;61.32;100594.00;5087760;27;66965;-31
2021/07/14 00:45:31;;;;;;;13.32;12.15;;;;;;;30.82;60.59;100596.28;5084702;27;69213;-31
2021/07/14 00:48:02;;;;;;;13.50;12.27;;;;;;;30.82;61.85;100594.41;5088083;27;65514;-35
2021/07/14 00:50:33;;;;;;;13.98;12.60;;;;;;;30.82;61.77;100605.25;5089155;27;69649;-32
2021/07/14 00:53:05;;;;;;;13.63;12.40;;;;;;;30.85;61.94;100606.66;5091337;27;66061;-32
2021/07/14 00:55:35;;;;;;;16.52;12.68;;;;;;;30.81;62.15;100598.16;5091503;27;69780;-31
2021/07/14 00:58:05;;;;;;;19.42;13.15;;;;;;;30.88;62.18;100614.34;5086167;27;66475;-31
2021/07/14 01:00:35;;;;;;;16.92;12.88;;;;;;;30.88;61.86;100617.88;5084425;27;70130;-31
2021/07/14 01:03:05;;;;;;;18.13;13.85;;;;;;;30.92;61.93;100620.94;5083234;27;65818;-31
2021/07/14 01:05:46;;;;;;;17.80;12.80;;;;;;;30.72;61.97;100589.47;5088663;27;70103;-32
2021/07/14 01:08:32;;;;;;;13.68;12.48;;;;;;;30.87;62.37;100615.38;5086197;27;66526;-30
2021/07/14 01:11:08;;;;;;;12.93;11.85;;;;;;;30.93;62.31;100615.31;5085935;27;70277;-31
2021/07/14 01:13:49;;;;;;;14.98;13.43;;;;;;;30.97;61.28;100615.69;5084064;27;66320;-31
2021/07/14 01:16:24;;;;;;;15.02;13.10;;;;;;;31.00;61.43;100609.81;5083112;27;69356;-31
2021/07/14 01:19:35;;;;;;;14.65;13.45;;;;;;;30.96;62.80;100603.19;5070690;27;66502;-31
2021/07/14 01:22:18;;;;;;;17.80;14.25;;;;;;;30.94;62.58;100597.19;5071690;27;69632;-33
2021/07/14 01:24:57;;;;;;;15.43;14.13;;;;;;;31.04;62.24;100611.00;5060470;27;65995;-31
2021/07/14 01:27:34;;;;;;;15.35;13.73;;;;;;;31.06;61.99;100602.66;5072760;27;70158;-33
2021/07/14 01:30:11;;;;;;;18.13;16.25;;;;;;;30.91;62.88;100578.69;5073019;27;66506;-31
2021/07/14 01:32:42;;;;;;;17.33;15.50;;;;;;;31.08;62.10;100609.50;5070467;27;70127;-32
2021/07/14 01:35:17;;;;;;;25.52;14.77;;;;;;;31.09;62.67;100608.47;5074769;27;65535;-33
2021/07/14 01:37:49;;;;;;;16.27;13.98;;;;;;;30.89;62.75;100578.88;5074123;27;69561;-31
2021/07/14 01:40:22;;;;;;;15.32;13.90;;;;;;;31.09;62.36;100619.28;5059727;28;66692;-31
2021/07/14 01:42:58;;;;;;;16.85;13.75;;;;;;;31.11;63.21;100619.88;5075859;27;70400;-32
2021/07/14 01:45:30;;;;;;;16.75;14.00;;;;;;;30.91;62.27;100592.22;5055555;27;65644;-34
2021/07/14 01:48:03;;;;;;;14.73;13.27;;;;;;;30.85;63.19;100582.31;5073111;27;69973;-32
2021/07/14 01:50:34;;;;;;;16.23;13.45;;;;;;;31.20;62.19;100646.66;5069495;27;66312;-31
2021/07/14 01:53:06;;;;;;;13.77;12.77;;;;;;;31.20;62.94;100649.34;5069931;27;70498;-31
2021/07/14 01:55:39;;;;;;;14.18;12.98;;;;;;;31.21;63.12;100660.00;5071962;27;65508;-30
2021/07/14 01:58:10;;;;;;;21.23;14.18;;;;;;;31.24;62.31;100653.28;5070539;27;70434;-32
2021/07/14 02:00:40;;;;;;;14.30;13.07;;;;;;;31.26;62.51;100659.28;5071329;27;66953;-32
2021/07/14 02:06:09;;;;;;;18.25;13.90;;;;;;;31.27;62.65;100669.09;5061892;27;66629;-32
2021/07/14 02:08:40;;;;;;;14.30;12.65;;;;;;;31.31;62.13;100664.84;5065484;27;69424;-31
2021/07/14 02:11:10;;;;;;;13.07;11.88;;;;;;;31.37;62.10;100672.09;5057834;27;64740;-33
2021/07/14 02:13:45;;;;;;;12.85;11.60;;;;;;;31.23;61.86;100648.91;5060450;27;70037;-33
2021/07/14 02:16:15;;;;;;;12.70;11.55;;;;;;;31.39;61.73;100672.69;5064258;27;66248;-31
2021/07/14 02:18:50;;;;;;;13.02;11.80;;;;;;;31.41;61.74;100673.31;5067263;27;69464;-30
2021/07/14 02:21:21;;;;;;;11.65;10.68;;;;;;;31.42;62.01;100676.84;5062486;27;65308;-32
2021/07/14 02:23:51;;;;;;;11.27;10.50;;;;;;;31.43;62.23;100673.91;5068465;27;71690;-33
2021/07/14 02:26:21;;;;;;;11.93;10.82;;;;;;;31.43;61.80;100671.19;5062849;27;65521;-30
2021/07/14 02:28:52;;;;;;;12.27;10.88;;;;;;;31.48;61.84;100674.06;5063069;27;70260;-31
2021/07/14 02:31:22;;;;;;;12.23;11.18;;;;;;;31.47;61.40;100663.44;5061651;27;65432;-30
2021/07/14 02:33:52;;;;;;;11.40;10.52;;;;;;;31.51;61.25;100670.88;5067488;27;69640;-32
2021/07/14 02:36:23;;;;;;;14.20;10.38;;;;;;;31.41;61.29;100646.19;5061762;27;65865;-32
2021/07/14 02:38:59;;;;;;;12.30;11.20;;;;;;;31.57;61.74;100675.38;5066576;27;70025;-32
2021/07/14 02:41:41;;;;;;;12.48;10.85;;;;;;;31.59;61.46;100658.88;5068664;27;65398;-30
2021/07/14 02:44:15;;;;;;;12.20;10.95;;;;;;;31.61;61.42;100665.72;5068424;27;69860;-32
2021/07/14 02:46:48;;;;;;;11.85;10.65;;;;;;;31.63;61.65;100668.22;5068764;27;66823;-32
2021/07/14 02:49:25;;;;;;;13.15;10.82;;;;;;;31.33;61.36;100614.78;5069236;27;69462;-31
2021/07/14 02:51:56;;;;;;;11.15;10.27;;;;;;;31.68;61.31;100670.22;5045985;27;64738;-32
2021/07/14 02:54:29;;;;;;;10.43;9.52;;;;;;;31.72;61.54;100671.41;5072370;27;70027;-32
2021/07/14 02:57:02;;;;;;;11.35;10.35;;;;;;;31.69;61.14;100671.88;5051574;28;66760;-31
2021/07/14 02:59:37;;;;;;;10.05;9.25;;;;;;;31.66;61.24;100661.50;5067866;27;70366;-32
2021/07/14 03:02:09;;;;;;;10.48;9.48;;;;;;;31.67;61.17;100652.28;5071100;27;66308;-31
2021/07/14 03:04:43;;;;;;;10.18;9.35;;;;;;;31.75;61.08;100665.53;5070368;27;70564;-31
2021/07/14 03:07:18;;;;;;;11.88;9.30;;;;;;;31.43;60.89;100608.84;5064991;27;65397;-33
2021/07/14 03:09:48;;;;;;;14.07;9.10;;;;;;;31.78;60.75;100654.22;5068438;27;69421;-33
2021/07/14 03:12:21;;;;;;;9.60;8.65;;;;;;;31.79;60.99;100655.88;5065041;27;66313;-35
2021/07/14 03:14:57;;;;;;;9.15;8.30;;;;;;;31.82;60.68;100655.41;5067486;27;69584;-31
2021/07/14 03:17:31;;;;;;;8.90;8.32;;;;;;;31.87;60.28;100652.81;5066260;27;65736;-32
2021/07/14 03:20:05;;;;;;;9.15;8.27;;;;;;;31.56;60.34;100595.06;5065975;27;70107;-31
2021/07/14 03:22:41;;;;;;;11.82;7.05;;;;;;;31.94;60.11;100648.16;5071681;27;65486;-30
2021/07/14 03:25:13;;;;;;;10.13;7.20;;;;;;;31.95;60.19;100654.41;5066585;27;70452;-31
2021/07/14 03:27:48;;;;;;;7.18;6.47;;;;;;;31.99;59.89;100659.13;5060357;27;65172;-32
2021/07/14 03:30:26;;;;;;;7.28;6.68;;;;;;;32.01;60.15;100657.03;5065041;27;70059;-32
2021/07/14 03:32:57;;;;;;;7.47;6.72;;;;;;;32.03;59.70;100657.59;5065621;27;65836;-33
2021/07/14 03:35:27;;;;;;;10.48;7.00;;;;;;;32.00;60.07;100647.22;5053485;27;69030;-34
2021/07/14 03:38:02;;;;;;;11.40;6.85;;;;;;;31.95;59.38;100627.25;5060583;27;65899;-33
2021/07/14 03:40:37;;;;;;;7.15;6.65;;;;;;;32.10;59.80;100654.78;5066177;27;70182;-31
2021/07/14 03:43:08;;;;;;;7.00;6.60;;;;;;;32.09;59.57;100642.25;5067149;27;65782;-33
2021/07/14 03:45:42;;;;;;;7.85;6.93;;;;;;;32.09;59.38;100639.56;5068096;27;69879;-31
2021/07/14 03:48:18;;;;;;;7.43;6.80;;;;;;;32.10;59.64;100629.56;5068328;27;66081;-30
2021/07/14 03:50:50;;;;;;;7.32;6.82;;;;;;;32.13;59.10;100639.94;5063664;27;70318;-30
2021/07/14 03:53:21;;;;;;;;;;;;;;;31.95;59.84;100644.38;5068365;27;66344;-30
2021/07/14 03:55:51;;;;;;;7.70;6.93;;;;;;;32.18;59.51;100637.31;5065463;27;69411;-32
2021/07/14 03:58:25;;;;;;;8.48;7.95;;;;;;;32.20;58.78;100635.19;5079426;27;67360;-35
2021/07/14 04:00:55;;;;;;;9.63;8.10;;;;;;;32.22;58.82;100633.09;5069705;27;70114;-30
2021/07/14 04:03:28;;;;;;;9.07;8.27;;;;;;;32.23;58.72;100623.88;5065864;27;65252;-31
2021/07/14 04:06:07;;;;;;;8.20;7.60;;;;;;;32.23;58.98;100624.72;5063323;27;69364;-33
2021/07/14 04:09:07;;;;;;;8.23;7.63;;;;;;;32.23;58.82;100618.44;5063842;27;66426;-31
2021/07/14 04:11:39;;;;;;;8.50;7.97;;;;;;;32.31;58.74;100620.81;5064858;27;70282;-32
2021/07/14 04:14:09;;;;;;;9.30;8.52;;;;;;;32.34;58.68;100617.63;5060629;27;66081;-32
2021/07/14 04:16:40;;;;;;;9.80;9.07;;;;;;;32.32;58.72;100617.03;5044270;27;71111;-31
2021/07/14 04:19:11;;;;;;;9.65;9.00;;;;;;;32.34;58.88;100617.63;5064471;27;66379;-31
2021/07/14 04:21:41;;;;;;;10.60;9.40;;;;;;;32.36;58.48;100614.66;5064760;27;69358;-32
2021/07/14 04:24:12;;;;;;;9.30;8.70;;;;;;;32.39;58.63;100612.31;5066017;27;66513;-30
2021/07/14 04:26:42;;;;;;;9.75;8.88;;;;;;;32.43;58.71;100608.06;5052580;27;70454;-31
2021/07/14 04:29:13;;;;;;;10.02;9.23;;;;;;;32.43;58.43;100602.63;5065380;27;65539;-30
2021/07/14 04:31:44;;;;;;;10.48;9.75;;;;;;;32.45;58.25;100600.47;5066745;27;70523;-31
2021/07/14 04:34:14;;;;;;;9.25;8.65;;;;;;;32.44;57.83;100596.13;5068358;27;66177;-30
2021/07/14 04:36:44;;;;;;;10.68;9.73;;;;;;;32.43;58.07;100583.63;5067232;27;70233;-31
2021/07/14 04:39:14;;;;;;;11.43;9.00;;;;;;;32.49;57.92;100585.41;5066194;27;66136;-32
2021/07/14 04:41:44;;;;;;;9.02;8.48;;;;;;;32.52;57.52;100584.13;5069923;27;69943;-32
2021/07/14 04:44:28;;;;;;;9.95;9.25;;;;;;;32.56;57.36;100579.03;5066166;27;65868;-31
2021/07/14 04:46:59;;;;;;;8.80;8.18;;;;;;;32.60;57.27;100585.66;5069069;27;69427;-30
2021/07/14 04:49:30;;;;;;;9.60;8.90;;;;;;;32.65;57.51;100583.00;5071042;27;67222;-30
2021/07/14 04:52:00;;;;;;;11.48;9.13;;;;;;;32.70;57.27;100577.69;5067784;27;69228;-30
2021/07/14 04:54:30;;;;;;;10.07;9.18;;;;;;;32.72;57.00;100583.72;5075326;27;66440;-30
2021/07/14 04:57:00;;;;;;;9.98;9.18;;;;;;;32.75;56.60;100580.53;5072622;27;70172;-30
2021/07/14 04:59:34;;;;;;;9.75;8.85;;;;;;;32.77;56.81;100574.88;5071396;27;66713;-30
2021/07/14 05:02:07;;;;;;;9.60;9.00;;;;;;;32.63;56.81;100547.16;5058322;28;69354;-31
2021/07/14 05:04:37;;;;;;;8.85;8.20;;;;;;;32.83;57.03;100574.72;5071145;27;65811;-30
2021/07/14 05:07:07;;;;;;;9.77;8.90;;;;;;;32.86;56.70;100568.78;5074116;27;70110;-30
2021/07/14 05:09:37;;;;;;;10.23;8.50;;;;;;;32.89;56.98;100567.50;5073912;27;66187;-35
2021/07/14 05:12:07;;;;;;;9.82;8.88;;;;;;;32.93;56.63;100564.06;5067484;27;70253;-32
2021/07/14 05:14:38;;;;;;;9.18;8.57;;;;;;;32.96;56.75;100561.91;5070032;27;66110;-35
2021/07/14 05:17:08;;;;;;;9.88;8.75;;;;;;;32.97;56.69;100552.69;5067881;27;70078;-32
2021/07/14 05:19:41;;;;;;;8.40;7.65;;;;;;;32.99;55.64;100550.53;5069431;27;66096;-30
2021/07/14 05:22:11;;;;;;;8.10;7.20;;;;;;;32.99;55.54;100547.81;5073290;27;69306;-35
2021/07/14 05:24:42;;;;;;;11.05;8.05;;;;;;;33.03;53.86;100546.31;5070251;27;65833;-34
2021/07/14 05:27:12;;;;;;;11.13;7.80;;;;;;;33.01;55.40;100543.00;5069660;27;69506;-31
2021/07/14 05:29:42;;;;;;;8.75;8.13;;;;;;;33.02;55.43;100529.19;5067977;27;65492;-30
2021/07/14 05:32:13;;;;;;;8.82;7.63;;;;;;;33.03;55.18;100530.03;5069263;27;69063;-32
2021/07/14 05:34:43;;;;;;;8.98;8.18;;;;;;;33.05;55.60;100531.44;5051953;28;66418;-30
2021/07/14 05:37:13;;;;;;;7.90;7.50;;;;;;;33.04;55.34;100523.50;5070851;27;70364;-30
2021/07/14 05:39:44;;;;;;;8.40;7.72;;;;;;;33.05;55.04;100522.47;5072873;27;66539;-35
2021/07/14 05:42:15;;;;;;;7.93;7.43;;;;;;;33.05;55.18;100517.03;5050252;28;71433;-31
2021/07/14 05:44:46;;;;;;;10.98;8.93;;;;;;;33.10;55.27;100517.13;5067909;27;66189;-31
2021/07/14 05:47:17;;;;;;;9.82;8.38;;;;;;;33.08;55.72;100511.09;5068564;27;69080;-33
2021/07/14 05:49:47;;;;;;;10.13;9.13;;;;;;;33.04;56.27;100504.47;5065668;27;65046;-32
2021/07/14 05:52:18;;;;;;;9.20;8.43;;;;;;;33.05;56.57;100503.44;5072550;27;71324;-31
2021/07/14 05:54:48;;;;;;;9.18;8.48;;;;;;;33.01;56.65;100499.53;5064754;27;66029;-32
2021/07/14 05:57:19;;;;;;;9.93;8.77;;;;;;;32.99;56.76;100496.19;5068047;27;70222;-31
2021/07/14 05:59:51;;;;;;;9.93;8.50;;;;;;;33.00;57.50;100487.03;5064326;27;66877;-33
2021/07/14 06:02:23;;;;;;;9.27;8.60;;;;;;;32.99;57.41;100480.75;5069581;27;69898;-35
2021/07/14 06:04:54;;;;;;;9.57;8.63;;;;;;;32.99;57.44;100480.75;5066756;27;66516;-31
2021/07/14 06:07:25;;;;;;;9.80;8.65;;;;;;;32.98;57.01;100467.41;5068714;27;70078;-30
2021/07/14 06:10:11;;;;;;;10.50;8.85;;;;;;;32.93;57.69;100471.69;5054943;27;66229;-32
2021/07/14 06:12:56;;;;;;;8.70;8.20;;;;;;;33.00;57.64;100459.88;5068175;27;69526;-32
2021/07/14 06:15:27;;;;;;;9.02;8.35;;;;;;;33.04;57.68;100455.56;5071597;27;66786;-31
2021/07/14 06:17:58;;;;;;;9.73;8.38;;;;;;;33.03;57.60;100453.94;5074989;27;69273;-32
2021/07/14 06:20:28;;;;;;;9.00;8.17;;;;;;;33.02;57.81;100453.13;5063177;27;65060;-29
2021/07/14 06:22:58;;;;;;;8.13;7.53;;;;;;;33.05;57.57;100452.63;5070957;27;70249;-31
2021/07/14 06:25:29;;;;;;;8.73;8.13;;;;;;;33.04;57.69;100451.00;5074145;27;65257;-32
2021/07/14 06:28:02;;;;;;;9.48;8.68;;;;;;;32.96;57.75;100445.91;5073553;27;69535;-31
2021/07/14 06:30:32;;;;;;;9.30;8.70;;;;;;;32.98;58.12;100451.91;5057361;27;66223;-32
2021/07/14 06:33:03;;;;;;;9.02;8.43;;;;;;;32.94;57.92;100446.16;5069065;27;69170;-30
2021/07/14 06:35:33;;;;;;;9.38;8.68;;;;;;;32.95;58.20;100446.97;5075291;27;66434;-31
2021/07/14 06:38:04;;;;;;;8.52;8.00;;;;;;;32.95;58.08;100452.41;5073373;27;69826;-31
2021/07/14 06:40:37;;;;;;;10.13;8.70;;;;;;;32.96;58.10;100448.63;5070920;27;66333;-30
2021/07/14 06:43:10;;;;;;;8.10;7.60;;;;;;;32.97;58.23;100450.28;5033384;28;69289;-32
2021/07/14 06:45:41;;;;;;;8.40;7.75;;;;;;;32.97;58.23;100439.41;5065396;27;65956;-33
2021/07/14 06:48:12;;;;;;;8.73;8.13;;;;;;;32.99;58.04;100436.44;5065442;27;69970;-31
2021/07/14 06:50:43;;;;;;;13.27;8.70;;;;;;;32.97;57.86;100422.28;5064155;27;66155;-31
2021/07/14 06:53:14;;;;;;;9.25;8.40;;;;;;;32.99;58.07;100415.53;5051970;27;70065;-36
2021/07/14 06:55:44;;;;;;;9.20;8.57;;;;;;;33.00;58.15;100410.97;5064890;27;66002;-33
2021/07/14 06:58:14;;;;;;;9.80;9.02;;;;;;;33.00;58.17;100406.34;5067066;27;70108;-32
2021/07/14 07:00:45;;;;;;;9.70;9.10;;;;;;;32.99;57.88;100403.81;5063318;27;66158;-31
2021/07/14 07:03:16;;;;;;;10.10;9.18;;;;;;;33.02;57.93;100403.38;5067246;27;69993;-31
2021/07/14 07:05:47;;;;;;;10.60;9.53;;;;;;;32.99;57.90;100403.81;5062982;27;65872;-29
2021/07/14 07:08:18;;;;;;;10.67;9.60;;;;;;;33.01;57.96;100390.84;5066204;27;70819;-31
2021/07/14 07:10:51;;;;;;;10.65;9.38;;;;;;;33.07;57.69;100389.88;5067819;27;65807;-31
2021/07/14 07:13:22;;;;;;;11.23;10.32;;;;;;;33.07;57.46;100390.72;5062577;27;70599;-29
2021/07/14 07:15:53;;;;;;;10.30;9.63;;;;;;;33.08;57.36;100383.38;5059016;27;65451;-30
2021/07/14 07:18:24;;;;;;;10.57;9.67;;;;;;;33.09;56.75;100379.56;5066633;27;70533;-31
2021/07/14 07:20:58;;;;;;;10.07;9.48;;;;;;;33.10;56.58;100367.66;5066113;27;66100;-31
2021/07/14 07:23:29;;;;;;;;;;;;;;;32.93;57.36;100367.59;5064747;27;69949;-34
2021/07/14 07:26:00;;;;;;;9.90;9.02;;;;;;;33.08;57.09;100358.91;5067217;27;67131;-30
2021/07/14 07:28:35;;;;;;;11.00;9.98;;;;;;;33.12;56.86;100360.88;5068589;27;70412;-31
2021/07/14 07:31:07;;;;;;;14.48;9.13;;;;;;;33.14;56.29;100368.78;5046534;28;66166;-34
2021/07/14 07:33:38;;;;;;;10.05;9.25;;;;;;;33.15;56.46;100365.00;5063823;27;69994;-36
2021/07/14 07:36:09;;;;;;;10.90;9.85;;;;;;;33.15;56.27;100375.84;5063188;27;66396;-33
2021/07/14 07:38:40;;;;;;;11.45;9.63;;;;;;;33.15;56.13;100367.72;5060889;27;69657;-32
2021/07/14 07:41:12;;;;;;;13.95;9.07;;;;;;;33.08;56.33;100369.78;5060164;27;65879;-31
2021/07/14 07:43:43;;;;;;;;;;;;;;;33.01;56.81;100377.28;5069394;27;69067;-36
2021/07/14 07:46:15;;;;;;;10.57;9.77;;;;;;;33.18;56.83;100391.66;5067099;27;65456;-31
2021/07/14 07:48:47;;;;;;;10.30;9.55;;;;;;;33.20;56.36;100384.09;5068238;27;69421;-31
2021/07/14 07:51:18;;;;;;;65.07;13.15;;;;;;;33.21;56.28;100391.19;5068206;27;65939;-32
2021/07/14 07:53:48;;;;;;;261.25;34.90;;;;;;;33.17;56.08;100384.59;5068047;27;70522;-32
2021/07/14 07:56:21;;;;;;;67.25;16.38;;;;;;;33.19;56.28;100376.22;5068438;27;66330;-33
2021/07/14 07:58:51;;;;;;;;;;;;;;;33.05;56.67;100376.53;5070416;27;69113;-32
2021/07/14 08:01:21;;;;;;;98.80;19.58;;;;;;;33.24;56.28;100368.09;5067371;27;66284;-31
2021/07/14 08:03:53;;;;;;;62.63;14.25;;;;;;;33.23;56.63;100374.63;5064810;27;70173;-30
2021/07/14 08:06:26;;;;;;;37.72;13.30;;;;;;;33.24;56.43;100371.69;5062114;27;64243;-33
2021/07/14 08:09:00;;;;;;;57.25;15.30;;;;;;;33.20;56.18;100361.53;5065503;27;70007;-31
2021/07/14 08:11:34;;;;;;;63.75;15.48;;;;;;;33.25;55.68;100376.03;5055350;27;66182;-37
2021/07/14 08:14:04;;;;;;;51.92;14.35;;;;;;;33.23;55.55;100371.91;5044925;28;69841;-32
2021/07/14 08:16:35;;;;;;;62.33;15.25;;;;;;;33.13;55.51;100339.97;5053960;27;65312;-33
2021/07/14 08:19:06;;;;;;;47.97;14.38;;;;;;;33.22;55.77;100354.78;5067071;27;69688;-32
2021/07/14 08:21:42;;;;;;;59.78;14.05;;;;;;;33.25;55.57;100358.91;5044703;27;64896;-32
2021/07/14 08:24:12;;;;;;;43.97;12.60;;;;;;;33.25;55.37;100359.72;5068073;27;69845;-35
2021/07/14 08:26:43;;;;;;;46.40;13.57;;;;;;;33.22;55.56;100359.41;5063426;27;66722;-36
2021/07/14 08:29:34;;;;;;;37.33;13.20;;;;;;;33.25;55.69;100354.28;5070846;27;69392;-32
2021/07/14 08:32:05;;;;;;;36.58;12.15;;;;;;;33.28;55.65;100364.66;5072315;27;65454;-31
2021/07/14 08:34:36;;;;;;;36.40;12.27;;;;;;;33.27;55.41;100373.91;5073555;27;69580;-32
2021/07/14 08:37:08;;;;;;;36.92;12.30;;;;;;;33.29;55.25;100363.59;5056585;28;66207;-35
2021/07/14 08:39:40;;;;;;;34.50;12.15;;;;;;;33.24;55.28;100358.09;5079675;27;70284;-33
2021/07/14 08:42:14;;;;;;;26.65;11.45;;;;;;;33.29;55.29;100371.75;5073569;27;66518;-33
2021/07/14 08:44:48;;;;;;;34.65;12.65;;;;;;;33.27;54.89;100373.91;5056002;27;69981;-31
2021/07/14 08:47:19;;;;;;;28.52;11.70;;;;;;;33.28;54.91;100380.97;5067304;27;67522;-32
2021/07/14 08:49:51;;;;;;;29.30;11.82;;;;;;;33.28;54.75;100378.25;5071323;27;70170;-30
2021/07/14 08:52:21;;;;;;;;;;;;;;;33.13;55.13;100367.16;5060234;27;65791;-36
2021/07/14 08:54:52;;;;;;;29.60;12.43;;;;;;;33.29;54.67;100352.72;5071430;27;69370;-31
2021/07/14 08:57:22;;;;;;;27.33;11.57;;;;;;;33.32;54.62;100349.50;5074237;27;65352;-30
2021/07/14 09:00:09;;;;;;;28.98;11.88;;;;;;;33.30;54.62;100346.22;5070482;27;69067;-32
2021/07/14 09:02:42;;;;;;;27.80;12.00;;;;;;;33.32;54.74;100349.50;5052707;27;66373;-30
2021/07/14 09:05:14;;;;;;;31.23;11.53;;;;;;;33.30;54.35;100343.50;5073027;27;70953;-32
2021/07/14 09:07:45;;;;;;;29.02;12.30;;;;;;;33.23;53.94;100350.97;5057718;27;65899;-31
2021/07/14 09:10:17;;;;;;;26.48;11.90;;;;;;;33.25;53.74;100370.59;5072722;27;70350;-31
2021/07/14 09:12:56;;;;;;;29.02;11.13;;;;;;;32.99;53.82;100346.75;5071853;27;66144;-31
2021/07/14 09:15:28;;;;;;;22.02;11.75;;;;;;;33.19;54.19;100377.03;5068971;27;70108;-31
2021/07/14 09:18:01;;;;;;;23.60;11.07;;;;;;;33.19;53.89;100382.47;5064148;27;65459;-31
2021/07/14 09:20:36;;;;;;;21.90;11.38;;;;;;;33.15;54.19;100375.84;5061736;27;70021;-31
2021/07/14 09:23:18;;;;;;;22.17;11.38;;;;;;;33.21;55.25;100391.19;5069153;27;66543;-31
2021/07/14 09:25:58;;;;;;;27.77;11.00;;;;;;;33.20;56.43;100389.53;5055847;27;69524;-32
2021/07/14 09:28:38;;;;;;;30.75;11.10;;;;;;;33.20;57.04;100392.25;5074336;27;66266;-30
2021/07/14 09:31:15;;;;;;;20.92;10.85;;;;;;;33.18;56.47;100388.13;5066291;27;69462;-29
2021/07/14 09:33:45;;;;;;;16.58;10.00;;;;;;;33.18;56.54;100385.41;5073880;27;66393;-30
2021/07/14 09:36:16;;;;;;;16.65;10.20;;;;;;;33.08;56.61;100383.38;5071078;27;70410;-30
2021/07/14 09:38:46;;;;;;;19.15;9.40;;;;;;;33.09;56.55;100398.59;5070917;27;65496;-32
2021/07/14 09:41:17;;;;;;;30.25;10.68;;;;;;;32.96;58.06;100404.31;5070387;27;70495;-31
2021/07/14 09:43:47;;;;;;;13.95;9.60;;;;;;;32.91;57.75;100405.06;5069003;27;66715;-30
2021/07/14 09:46:19;;;;;;;16.05;11.10;;;;;;;32.85;58.33;100411.50;5070079;27;70017;-31
2021/07/14 09:48:51;;;;;;;16.48;12.63;;;;;;;32.89;58.95;100416.16;5068647;27;66217;-32
2021/07/14 09:51:23;;;;;;;23.48;9.40;;;;;;;32.77;57.46;100387.44;5073507;27;70149;-30
2021/07/14 09:53:56;;;;;;;16.20;9.77;;;;;;;32.92;57.59;100415.69;5069503;27;67600;-30
2021/07/14 09:56:28;;;;;;;10.52;8.23;;;;;;;32.71;57.44;100389.25;5075956;27;69886;-30
2021/07/14 09:59:08;;;;;;;8.40;7.63;;;;;;;32.82;57.71;100423.66;5067749;27;66189;-31
2021/07/14 10:01:48;;;;;;;8.95;6.75;;;;;;;32.76;57.98;100427.34;5074200;27;70465;-31
2021/07/14 10:04:26;;;;;;;8.13;6.97;;;;;;;32.67;57.87;100418.78;5073674;27;66492;-32
2021/07/14 10:07:10;;;;;;;10.48;7.50;;;;;;;32.61;58.37;100429.78;5069633;27;69870;-30
2021/07/14 10:09:42;;;;;;;15.20;8.10;;;;;;;32.58;58.60;100435.72;5071341;27;67440;-30
2021/07/14 10:12:35;;;;;;;13.95;7.72;;;;;;;32.32;59.29;100416.19;5071884;27;69322;-31
2021/07/14 10:15:09;;;;;;;7.63;6.93;;;;;;;32.55;59.24;100450.59;5072653;27;66689;-32
2021/07/14 10:17:45;;;;;;;7.15;6.65;;;;;;;32.17;59.08;100396.88;5070011;27;70009;-31
2021/07/14 10:20:38;;;;;;;8.10;6.43;;;;;;;32.43;59.68;100453.31;5067842;27;65674;-31
2021/07/14 10:23:14;;;;;;;7.05;6.50;;;;;;;32.51;59.17;100457.56;5065926;27;70107;-30
2021/07/14 10:25:49;;;;;;;7.35;6.85;;;;;;;32.58;59.00;100462.88;5065886;27;65437;-31
2021/07/14 10:28:24;;;;;;;7.23;6.63;;;;;;;32.64;58.79;100461.88;5071807;27;69956;-30
2021/07/14 10:30:55;;;;;;;6.55;6.05;;;;;;;32.67;58.58;100462.22;5068378;27;66536;-31
2021/07/14 10:33:27;;;;;;;7.45;6.25;;;;;;;32.72;58.55;100458.78;5066155;27;70102;-31
2021/07/14 10:36:00;;;;;;;6.30;5.80;;;;;;;32.56;58.27;100432.41;5069970;27;66750;-32
2021/07/14 10:38:32;;;;;;;7.03;6.43;;;;;;;32.78;58.25;100468.66;5067249;27;70599;-32
2021/07/14 10:41:03;;;;;;;7.88;5.63;;;;;;;32.76;57.93;100476.22;5070404;27;65144;-31
2021/07/14 10:43:34;;;;;;;6.70;6.18;;;;;;;32.80;58.12;100474.69;5071492;27;69269;-30
2021/07/14 10:46:26;;;;;;;7.20;5.88;;;;;;;32.81;57.96;100472.78;5052804;28;66214;-30
2021/07/14 10:48:59;;;;;;;6.60;6.10;;;;;;;32.83;57.74;100492.41;5052680;27;69807;-31
2021/07/14 10:51:31;;;;;;;6.32;5.93;;;;;;;32.83;57.56;100485.06;5070901;27;66156;-32
2021/07/14 10:54:05;;;;;;;;;;;;;;;32.71;57.92;100489.75;5071824;27;69258;-30
2021/07/14 10:56:40;;;;;;;5.78;5.32;;;;;;;32.89;57.55;100500.38;5069475;27;65750;-31
2021/07/14 10:59:12;;;;;;;12.20;6.25;;;;;;;32.89;57.15;100503.09;5072783;27;70547;-31
2021/07/14 11:01:52;;;;;;;13.93;7.30;;;;;;;32.90;57.48;100510.22;5071608;27;65986;-31
2021/07/14 11:04:26;;;;;;;20.20;8.18;;;;;;;32.82;57.87;100512.47;5066507;27;70072;-31
2021/07/14 11:07:07;;;;;;;26.08;8.38;;;;;;;32.69;56.31;100513.59;5069575;27;65542;-31
2021/07/14 11:09:47;;;;;;;19.10;7.57;;;;;;;32.53;55.81;100525.22;5071231;27;67419;-30
2021/07/14 11:12:30;;;;;;;13.30;6.97;;;;;;;32.28;53.69;100529.00;5064742;27;66329;-31
2021/07/14 11:15:02;;;;;;;18.48;7.18;;;;;;;32.16;53.87;100526.31;5068603;27;69140;-30
2021/07/14 11:17:36;;;;;;;13.55;8.00;;;;;;;31.99;52.96;100537.06;5072187;27;66025;-32
2021/07/14 11:20:12;;;;;;;10.32;6.78;;;;;;;31.89;52.36;100541.38;5067663;27;70358;-31
2021/07/14 11:22:52;;;;;;;13.57;6.35;;;;;;;31.75;51.27;100541.59;5079560;27;66372;-31
2021/07/14 11:25:25;;;;;;;8.90;6.10;;;;;;;31.41;50.94;100507.16;5072668;27;70232;-31
2021/07/14 11:28:08;;;;;;;17.00;7.00;;;;;;;31.53;51.28;100538.63;5072009;27;66018;-30
2021/07/14 11:30:47;;;;;;;24.08;6.57;;;;;;;31.44;51.26;100545.44;5070394;27;70191;-30
2021/07/14 11:33:22;;;;;;;11.95;5.95;;;;;;;31.36;51.02;100543.88;5072110;27;66253;-31
2021/07/14 11:36:06;;;;;;;19.95;6.45;;;;;;;31.32;49.95;100548.09;5055195;27;70255;-31
2021/07/14 11:38:54;;;;;;;18.23;5.68;;;;;;;31.23;48.89;100543.22;5067759;27;65817;-30
2021/07/14 11:41:36;;;;;;;12.50;6.00;;;;;;;31.19;50.39;100552.88;5070338;27;69582;-32
2021/07/14 11:44:07;;;;;;;10.10;6.50;;;;;;;31.14;49.82;100559.81;5058029;27;65640;-31
2021/07/14 11:46:38;;;;;;;16.42;6.00;;;;;;;31.08;49.64;100558.03;5070007;27;69279;-31
2021/07/14 11:49:09;;;;;;;15.25;6.22;;;;;;;30.96;49.39;100559.84;5070013;27;65484;-31
2021/07/14 11:51:41;;;;;;;21.60;5.88;;;;;;;30.96;50.07;100570.69;5068997;27;70302;-31
2021/07/14 11:54:24;;;;;;;15.98;6.68;;;;;;;30.89;49.93;100569.94;5068264;27;66618;-31
2021/07/14 11:56:54;;;;;;;32.45;6.53;;;;;;;30.88;49.91;100574.53;5069044;27;69506;-37